sensor_id;sensor_type;location;lat;lon;timestamp;P1;durP1;ratioP1;P2;durP2;ratioP2
19026;SDS011;9646;52.034;5.554;2023-05-19T00:01:44;4.63;;;2.05;;
19026;SDS011;9646;52.034;5.554;2023-05-19T00:04:12;5.07;;;2.20;;
19026;SDS011;9646;52.034;5.554;2023-05-19T00:06:39;5.90;;;2.10;;
19026;SDS011;9646;52.034;5.554;2023-05-19T00:09:08;5.07;;;1.98;;
19026;SDS011;9646;52.034;5.554;2023-05-19T00:11:36;4.50;;;1.90;;
19026;SDS011;9646;52.034;5.554;2023-05-19T00:14:04;3.42;;;1.63;;
19026;SDS011;9646;52.034;5.554;2023-05-19T00:16:32;4.22;;;1.92;;
19026;SDS011;9646;52.034;5.554;2023-05-19T00:19:01;3.70;;;1.73;;
19026;SDS011;9646;52.034;5.554;2023-05-19T00:21:29;4.97;;;1.67;;
19026;SDS011;9646;52.034;5.554;2023-05-19T00:23:57;2.83;;;1.80;;
19026;SDS011;9646;52.034;5.554;2023-05-19T00:26:25;4.95;;;2.05;;
19026;SDS011;9646;52.034;5.554;2023-05-19T00:28:53;4.88;;;2.08;;
19026;SDS011;9646;52.034;5.554;2023-05-19T00:31:20;4.25;;;2.13;;
19026;SDS011;9646;52.034;5.554;2023-05-19T00:33:47;5.18;;;1.92;;
19026;SDS011;9646;52.034;5.554;2023-05-19T00:36:15;3.70;;;1.83;;
19026;SDS011;9646;52.034;5.554;2023-05-19T00:38:42;6.35;;;2.13;;
19026;SDS011;9646;52.034;5.554;2023-05-19T00:41:09;4.53;;;2.08;;
19026;SDS011;9646;52.034;5.554;2023-05-19T00:43:36;3.83;;;2.00;;
19026;SDS011;9646;52.034;5.554;2023-05-19T00:46:03;3.25;;;2.13;;
19026;SDS011;9646;52.034;5.554;2023-05-19T00:48:31;4.35;;;2.00;;
19026;SDS011;9646;52.034;5.554;2023-05-19T00:50:58;3.20;;;1.88;;
19026;SDS011;9646;52.034;5.554;2023-05-19T00:53:29;4.57;;;1.75;;
19026;SDS011;9646;52.034;5.554;2023-05-19T00:55:58;4.50;;;1.90;;
19026;SDS011;9646;52.034;5.554;2023-05-19T00:58:25;3.20;;;1.98;;
19026;SDS011;9646;52.034;5.554;2023-05-19T01:00:55;4.47;;;1.90;;
19026;SDS011;9646;52.034;5.554;2023-05-19T01:03:27;4.88;;;1.90;;
19026;SDS011;9646;52.034;5.554;2023-05-19T01:05:54;7.32;;;1.90;;
19026;SDS011;9646;52.034;5.554;2023-05-19T01:08:25;2.95;;;1.60;;
19026;SDS011;9646;52.034;5.554;2023-05-19T01:10:54;4.07;;;1.80;;
19026;SDS011;9646;52.034;5.554;2023-05-19T01:13:21;3.92;;;1.80;;
19026;SDS011;9646;52.034;5.554;2023-05-19T01:15:55;5.30;;;2.05;;
19026;SDS011;9646;52.034;5.554;2023-05-19T01:18:24;4.80;;;1.67;;
19026;SDS011;9646;52.034;5.554;2023-05-19T01:20:57;4.07;;;1.95;;
19026;SDS011;9646;52.034;5.554;2023-05-19T01:23:32;6.45;;;2.50;;
19026;SDS011;9646;52.034;5.554;2023-05-19T01:29:19;5.32;;;2.00;;
19026;SDS011;9646;52.034;5.554;2023-05-19T01:31:55;3.78;;;2.10;;
19026;SDS011;9646;52.034;5.554;2023-05-19T01:34:24;5.45;;;1.77;;
19026;SDS011;9646;52.034;5.554;2023-05-19T01:36:52;3.50;;;2.05;;
19026;SDS011;9646;52.034;5.554;2023-05-19T01:39:20;6.68;;;2.50;;
19026;SDS011;9646;52.034;5.554;2023-05-19T01:41:47;5.80;;;2.00;;
19026;SDS011;9646;52.034;5.554;2023-05-19T01:44:14;4.75;;;2.33;;
19026;SDS011;9646;52.034;5.554;2023-05-19T01:46:41;5.95;;;2.22;;
19026;SDS011;9646;52.034;5.554;2023-05-19T01:49:10;3.72;;;2.20;;
19026;SDS011;9646;52.034;5.554;2023-05-19T01:51:37;2.92;;;1.73;;
19026;SDS011;9646;52.034;5.554;2023-05-19T01:54:05;8.93;;;2.55;;
19026;SDS011;9646;52.034;5.554;2023-05-19T01:56:33;3.92;;;2.35;;
19026;SDS011;9646;52.034;5.554;2023-05-19T01:59:08;3.88;;;2.10;;
19026;SDS011;9646;52.034;5.554;2023-05-19T02:01:39;4.13;;;2.00;;
19026;SDS011;9646;52.034;5.554;2023-05-19T02:04:14;5.03;;;1.98;;
19026;SDS011;9646;52.034;5.554;2023-05-19T02:06:45;5.25;;;2.00;;
19026;SDS011;9646;52.034;5.554;2023-05-19T02:09:14;5.63;;;2.17;;
19026;SDS011;9646;52.034;5.554;2023-05-19T02:11:46;4.82;;;2.20;;
19026;SDS011;9646;52.034;5.554;2023-05-19T02:14:19;5.63;;;2.63;;
19026;SDS011;9646;52.034;5.554;2023-05-19T02:16:47;6.28;;;2.22;;
19026;SDS011;9646;52.034;5.554;2023-05-19T02:19:20;7.00;;;1.95;;
19026;SDS011;9646;52.034;5.554;2023-05-19T02:21:47;3.65;;;1.98;;
19026;SDS011;9646;52.034;5.554;2023-05-19T02:24:14;3.97;;;1.90;;
19026;SDS011;9646;52.034;5.554;2023-05-19T02:26:41;3.15;;;1.75;;
19026;SDS011;9646;52.034;5.554;2023-05-19T02:29:09;4.40;;;2.03;;
19026;SDS011;9646;52.034;5.554;2023-05-19T02:31:36;3.25;;;1.83;;
19026;SDS011;9646;52.034;5.554;2023-05-19T02:34:03;5.20;;;2.25;;
19026;SDS011;9646;52.034;5.554;2023-05-19T02:36:32;3.15;;;1.60;;
19026;SDS011;9646;52.034;5.554;2023-05-19T02:39:00;4.10;;;1.70;;
19026;SDS011;9646;52.034;5.554;2023-05-19T02:41:27;3.17;;;1.90;;
19026;SDS011;9646;52.034;5.554;2023-05-19T02:43:54;6.30;;;2.08;;
19026;SDS011;9646;52.034;5.554;2023-05-19T02:46:22;2.67;;;1.85;;
19026;SDS011;9646;52.034;5.554;2023-05-19T02:48:49;3.60;;;2.03;;
19026;SDS011;9646;52.034;5.554;2023-05-19T02:51:16;4.43;;;2.50;;
19026;SDS011;9646;52.034;5.554;2023-05-19T02:53:44;2.78;;;1.60;;
19026;SDS011;9646;52.034;5.554;2023-05-19T02:56:11;4.82;;;1.75;;
19026;SDS011;9646;52.034;5.554;2023-05-19T02:58:38;4.78;;;2.03;;
19026;SDS011;9646;52.034;5.554;2023-05-19T03:01:07;5.13;;;1.80;;
19026;SDS011;9646;52.034;5.554;2023-05-19T03:03:34;6.05;;;2.40;;
19026;SDS011;9646;52.034;5.554;2023-05-19T03:06:01;5.78;;;2.20;;
19026;SDS011;9646;52.034;5.554;2023-05-19T03:08:28;4.75;;;1.90;;
19026;SDS011;9646;52.034;5.554;2023-05-19T03:10:56;5.03;;;1.98;;
19026;SDS011;9646;52.034;5.554;2023-05-19T03:13:23;4.60;;;2.42;;
19026;SDS011;9646;52.034;5.554;2023-05-19T03:15:50;5.55;;;2.25;;
19026;SDS011;9646;52.034;5.554;2023-05-19T03:18:17;3.00;;;1.77;;
19026;SDS011;9646;52.034;5.554;2023-05-19T03:20:44;3.25;;;1.77;;
19026;SDS011;9646;52.034;5.554;2023-05-19T03:23:11;2.95;;;1.95;;
19026;SDS011;9646;52.034;5.554;2023-05-19T03:25:38;3.35;;;1.70;;
19026;SDS011;9646;52.034;5.554;2023-05-19T03:28:07;3.55;;;1.88;;
19026;SDS011;9646;52.034;5.554;2023-05-19T03:30:34;4.10;;;2.10;;
19026;SDS011;9646;52.034;5.554;2023-05-19T03:33:01;2.55;;;1.60;;
19026;SDS011;9646;52.034;5.554;2023-05-19T03:35:29;4.35;;;1.90;;
19026;SDS011;9646;52.034;5.554;2023-05-19T03:37:56;4.85;;;1.92;;
19026;SDS011;9646;52.034;5.554;2023-05-19T03:40:23;4.07;;;2.20;;
19026;SDS011;9646;52.034;5.554;2023-05-19T03:42:50;3.72;;;2.10;;
19026;SDS011;9646;52.034;5.554;2023-05-19T03:45:19;3.05;;;2.03;;
19026;SDS011;9646;52.034;5.554;2023-05-19T03:47:46;4.63;;;1.98;;
19026;SDS011;9646;52.034;5.554;2023-05-19T03:50:13;4.38;;;2.10;;
19026;SDS011;9646;52.034;5.554;2023-05-19T03:52:41;3.83;;;1.88;;
19026;SDS011;9646;52.034;5.554;2023-05-19T03:55:10;3.35;;;1.95;;
19026;SDS011;9646;52.034;5.554;2023-05-19T03:57:38;3.85;;;1.98;;
19026;SDS011;9646;52.034;5.554;2023-05-19T04:00:07;3.83;;;1.60;;
19026;SDS011;9646;52.034;5.554;2023-05-19T04:02:36;5.40;;;2.00;;
19026;SDS011;9646;52.034;5.554;2023-05-19T04:05:03;3.60;;;1.90;;
19026;SDS011;9646;52.034;5.554;2023-05-19T04:07:31;3.67;;;1.73;;
19026;SDS011;9646;52.034;5.554;2023-05-19T04:09:58;3.03;;;1.90;;
19026;SDS011;9646;52.034;5.554;2023-05-19T04:12:25;3.72;;;1.85;;
19026;SDS011;9646;52.034;5.554;2023-05-19T04:14:52;5.10;;;2.30;;
19026;SDS011;9646;52.034;5.554;2023-05-19T04:17:19;4.82;;;1.85;;
19026;SDS011;9646;52.034;5.554;2023-05-19T04:19:51;4.72;;;1.90;;
19026;SDS011;9646;52.034;5.554;2023-05-19T04:22:18;3.20;;;2.10;;
19026;SDS011;9646;52.034;5.554;2023-05-19T04:24:45;3.95;;;1.98;;
19026;SDS011;9646;52.034;5.554;2023-05-19T04:27:12;5.50;;;2.30;;
19026;SDS011;9646;52.034;5.554;2023-05-19T04:29:40;4.72;;;2.42;;
19026;SDS011;9646;52.034;5.554;2023-05-19T04:32:07;4.50;;;2.17;;
19026;SDS011;9646;52.034;5.554;2023-05-19T04:34:34;3.53;;;2.28;;
19026;SDS011;9646;52.034;5.554;2023-05-19T04:37:05;5.13;;;2.17;;
19026;SDS011;9646;52.034;5.554;2023-05-19T04:39:34;3.20;;;2.00;;
19026;SDS011;9646;52.034;5.554;2023-05-19T04:42:03;4.60;;;2.25;;
19026;SDS011;9646;52.034;5.554;2023-05-19T04:44:30;3.65;;;2.00;;
19026;SDS011;9646;52.034;5.554;2023-05-19T04:46:57;4.85;;;2.22;;
19026;SDS011;9646;52.034;5.554;2023-05-19T04:49:24;5.30;;;2.00;;
19026;SDS011;9646;52.034;5.554;2023-05-19T04:51:51;3.08;;;1.98;;
19026;SDS011;9646;52.034;5.554;2023-05-19T04:54:21;3.78;;;1.95;;
19026;SDS011;9646;52.034;5.554;2023-05-19T04:56:48;3.92;;;2.03;;
19026;SDS011;9646;52.034;5.554;2023-05-19T04:59:15;3.28;;;2.17;;
19026;SDS011;9646;52.034;5.554;2023-05-19T05:01:42;3.47;;;2.20;;
19026;SDS011;9646;52.034;5.554;2023-05-19T05:04:09;4.60;;;2.00;;
19026;SDS011;9646;52.034;5.554;2023-05-19T05:06:36;3.85;;;2.30;;
19026;SDS011;9646;52.034;5.554;2023-05-19T05:09:06;5.40;;;2.28;;
19026;SDS011;9646;52.034;5.554;2023-05-19T05:11:36;2.92;;;1.85;;
19026;SDS011;9646;52.034;5.554;2023-05-19T05:14:03;4.57;;;2.15;;
19026;SDS011;9646;52.034;5.554;2023-05-19T05:16:30;5.10;;;1.80;;
19026;SDS011;9646;52.034;5.554;2023-05-19T05:18:58;5.47;;;2.50;;
19026;SDS011;9646;52.034;5.554;2023-05-19T05:21:25;4.15;;;2.75;;
19026;SDS011;9646;52.034;5.554;2023-05-19T05:23:53;6.05;;;2.20;;
19026;SDS011;9646;52.034;5.554;2023-05-19T05:26:20;5.82;;;2.20;;
19026;SDS011;9646;52.034;5.554;2023-05-19T05:28:49;3.00;;;1.73;;
19026;SDS011;9646;52.034;5.554;2023-05-19T05:31:16;3.97;;;2.35;;
19026;SDS011;9646;52.034;5.554;2023-05-19T05:33:43;4.85;;;2.10;;
19026;SDS011;9646;52.034;5.554;2023-05-19T05:36:10;4.43;;;1.98;;
19026;SDS011;9646;52.034;5.554;2023-05-19T05:38:37;3.10;;;2.25;;
19026;SDS011;9646;52.034;5.554;2023-05-19T05:41:04;5.95;;;2.55;;
19026;SDS011;9646;52.034;5.554;2023-05-19T05:43:31;7.35;;;3.00;;
19026;SDS011;9646;52.034;5.554;2023-05-19T05:46:00;5.47;;;3.00;;
19026;SDS011;9646;52.034;5.554;2023-05-19T05:48:27;5.28;;;2.30;;
19026;SDS011;9646;52.034;5.554;2023-05-19T05:50:55;4.90;;;2.15;;
19026;SDS011;9646;52.034;5.554;2023-05-19T05:53:23;6.10;;;3.17;;
19026;SDS011;9646;52.034;5.554;2023-05-19T05:55:51;6.10;;;2.85;;
19026;SDS011;9646;52.034;5.554;2023-05-19T05:58:18;4.53;;;1.90;;
19026;SDS011;9646;52.034;5.554;2023-05-19T06:00:46;5.80;;;2.35;;
19026;SDS011;9646;52.034;5.554;2023-05-19T06:03:14;5.28;;;2.50;;
19026;SDS011;9646;52.034;5.554;2023-05-19T06:05:41;3.60;;;2.17;;
19026;SDS011;9646;52.034;5.554;2023-05-19T06:08:08;2.72;;;2.00;;
19026;SDS011;9646;52.034;5.554;2023-05-19T06:10:35;6.15;;;2.10;;
19026;SDS011;9646;52.034;5.554;2023-05-19T06:13:05;4.80;;;2.10;;
19026;SDS011;9646;52.034;5.554;2023-05-19T06:15:32;6.75;;;3.17;;
19026;SDS011;9646;52.034;5.554;2023-05-19T06:17:59;4.18;;;1.85;;
19026;SDS011;9646;52.034;5.554;2023-05-19T06:20:28;6.40;;;2.20;;
19026;SDS011;9646;52.034;5.554;2023-05-19T06:22:55;4.38;;;2.22;;
19026;SDS011;9646;52.034;5.554;2023-05-19T06:25:22;4.47;;;2.05;;
19026;SDS011;9646;52.034;5.554;2023-05-19T06:27:49;4.18;;;2.20;;
19026;SDS011;9646;52.034;5.554;2023-05-19T06:30:16;5.22;;;2.50;;
19026;SDS011;9646;52.034;5.554;2023-05-19T06:32:43;4.53;;;2.72;;
19026;SDS011;9646;52.034;5.554;2023-05-19T06:35:11;5.20;;;2.35;;
19026;SDS011;9646;52.034;5.554;2023-05-19T06:37:39;5.95;;;2.55;;
19026;SDS011;9646;52.034;5.554;2023-05-19T06:40:06;3.75;;;2.00;;
19026;SDS011;9646;52.034;5.554;2023-05-19T06:42:34;5.95;;;2.30;;
19026;SDS011;9646;52.034;5.554;2023-05-19T06:45:01;5.30;;;2.78;;
19026;SDS011;9646;52.034;5.554;2023-05-19T06:47:28;5.32;;;2.08;;
19026;SDS011;9646;52.034;5.554;2023-05-19T06:49:55;6.65;;;2.50;;
19026;SDS011;9646;52.034;5.554;2023-05-19T06:52:23;6.90;;;2.88;;
19026;SDS011;9646;52.034;5.554;2023-05-19T06:54:52;5.85;;;2.45;;
19026;SDS011;9646;52.034;5.554;2023-05-19T06:57:19;5.18;;;1.75;;
19026;SDS011;9646;52.034;5.554;2023-05-19T06:59:46;4.95;;;1.65;;
19026;SDS011;9646;52.034;5.554;2023-05-19T07:02:13;3.63;;;2.10;;
19026;SDS011;9646;52.034;5.554;2023-05-19T07:04:40;4.15;;;1.63;;
19026;SDS011;9646;52.034;5.554;2023-05-19T07:07:07;7.35;;;2.40;;
19026;SDS011;9646;52.034;5.554;2023-05-19T07:09:34;4.63;;;2.30;;
19026;SDS011;9646;52.034;5.554;2023-05-19T07:12:03;7.43;;;1.67;;
19026;SDS011;9646;52.034;5.554;2023-05-19T07:14:30;3.55;;;1.80;;
19026;SDS011;9646;52.034;5.554;2023-05-19T07:16:57;5.10;;;1.92;;
19026;SDS011;9646;52.034;5.554;2023-05-19T07:19:24;2.30;;;1.60;;
19026;SDS011;9646;52.034;5.554;2023-05-19T07:21:51;5.75;;;1.50;;
19026;SDS011;9646;52.034;5.554;2023-05-19T07:24:18;4.68;;;1.73;;
19026;SDS011;9646;52.034;5.554;2023-05-19T07:26:46;3.42;;;1.60;;
19026;SDS011;9646;52.034;5.554;2023-05-19T07:29:14;4.22;;;1.75;;
19026;SDS011;9646;52.034;5.554;2023-05-19T07:31:41;2.78;;;1.33;;
19026;SDS011;9646;52.034;5.554;2023-05-19T07:34:08;5.15;;;2.10;;
19026;SDS011;9646;52.034;5.554;2023-05-19T07:36:35;3.53;;;1.65;;
19026;SDS011;9646;52.034;5.554;2023-05-19T07:39:02;3.80;;;1.55;;
19026;SDS011;9646;52.034;5.554;2023-05-19T07:41:29;3.40;;;1.90;;
19026;SDS011;9646;52.034;5.554;2023-05-19T07:43:56;2.22;;;1.40;;
19026;SDS011;9646;52.034;5.554;2023-05-19T07:46:25;4.40;;;1.73;;
19026;SDS011;9646;52.034;5.554;2023-05-19T07:48:52;4.25;;;1.80;;
19026;SDS011;9646;52.034;5.554;2023-05-19T07:51:19;2.60;;;1.60;;
19026;SDS011;9646;52.034;5.554;2023-05-19T07:53:46;3.30;;;1.75;;
19026;SDS011;9646;52.034;5.554;2023-05-19T07:56:13;2.80;;;1.70;;
19026;SDS011;9646;52.034;5.554;2023-05-19T07:58:40;4.53;;;1.38;;
19026;SDS011;9646;52.034;5.554;2023-05-19T08:01:07;2.60;;;1.10;;
19026;SDS011;9646;52.034;5.554;2023-05-19T08:03:36;4.07;;;1.30;;
19026;SDS011;9646;52.034;5.554;2023-05-19T08:06:03;2.58;;;1.50;;
19026;SDS011;9646;52.034;5.554;2023-05-19T08:08:30;2.90;;;1.30;;
19026;SDS011;9646;52.034;5.554;2023-05-19T08:11:00;4.18;;;1.75;;
19026;SDS011;9646;52.034;5.554;2023-05-19T08:13:27;2.67;;;1.38;;
19026;SDS011;9646;52.034;5.554;2023-05-19T08:15:54;3.08;;;1.30;;
19026;SDS011;9646;52.034;5.554;2023-05-19T08:18:23;3.03;;;1.52;;
19026;SDS011;9646;52.034;5.554;2023-05-19T08:20:52;2.78;;;1.60;;
19026;SDS011;9646;52.034;5.554;2023-05-19T08:23:19;3.47;;;1.48;;
19026;SDS011;9646;52.034;5.554;2023-05-19T08:25:47;4.50;;;1.88;;
19026;SDS011;9646;52.034;5.554;2023-05-19T08:28:14;5.43;;;1.63;;
19026;SDS011;9646;52.034;5.554;2023-05-19T08:30:41;4.60;;;1.50;;
19026;SDS011;9646;52.034;5.554;2023-05-19T08:33:08;5.63;;;1.90;;
19026;SDS011;9646;52.034;5.554;2023-05-19T08:35:35;6.53;;;2.05;;
19026;SDS011;9646;52.034;5.554;2023-05-19T08:38:04;4.53;;;1.90;;
19026;SDS011;9646;52.034;5.554;2023-05-19T08:40:31;2.78;;;1.40;;
19026;SDS011;9646;52.034;5.554;2023-05-19T08:42:59;2.92;;;1.30;;
19026;SDS011;9646;52.034;5.554;2023-05-19T08:45:26;3.65;;;1.30;;
19026;SDS011;9646;52.034;5.554;2023-05-19T08:47:53;5.47;;;1.65;;
19026;SDS011;9646;52.034;5.554;2023-05-19T08:50:22;3.10;;;1.23;;
19026;SDS011;9646;52.034;5.554;2023-05-19T08:52:50;4.07;;;1.52;;
19026;SDS011;9646;52.034;5.554;2023-05-19T08:55:21;3.50;;;1.08;;
19026;SDS011;9646;52.034;5.554;2023-05-19T08:57:51;5.68;;;1.80;;
19026;SDS011;9646;52.034;5.554;2023-05-19T09:00:18;2.50;;;1.30;;
19026;SDS011;9646;52.034;5.554;2023-05-19T09:02:46;5.03;;;1.70;;
19026;SDS011;9646;52.034;5.554;2023-05-19T09:05:15;2.63;;;1.20;;
19026;SDS011;9646;52.034;5.554;2023-05-19T09:07:43;5.30;;;1.58;;
19026;SDS011;9646;52.034;5.554;2023-05-19T09:10:10;3.10;;;1.38;;
19026;SDS011;9646;52.034;5.554;2023-05-19T09:12:40;2.70;;;1.10;;
19026;SDS011;9646;52.034;5.554;2023-05-19T09:15:09;3.47;;;1.30;;
19026;SDS011;9646;52.034;5.554;2023-05-19T09:17:37;5.10;;;1.20;;
19026;SDS011;9646;52.034;5.554;2023-05-19T09:20:05;4.10;;;1.63;;
19026;SDS011;9646;52.034;5.554;2023-05-19T09:22:41;4.38;;;1.80;;
19026;SDS011;9646;52.034;5.554;2023-05-19T09:25:18;5.30;;;1.40;;
19026;SDS011;9646;52.034;5.554;2023-05-19T09:27:47;1.95;;;1.33;;
19026;SDS011;9646;52.034;5.554;2023-05-19T09:30:15;4.38;;;1.50;;
19026;SDS011;9646;52.034;5.554;2023-05-19T09:32:42;2.90;;;1.25;;
19026;SDS011;9646;52.034;5.554;2023-05-19T09:35:09;2.53;;;1.10;;
19026;SDS011;9646;52.034;5.554;2023-05-19T09:37:38;3.30;;;1.00;;
19026;SDS011;9646;52.034;5.554;2023-05-19T09:40:06;3.05;;;1.15;;
19026;SDS011;9646;52.034;5.554;2023-05-19T09:42:35;3.58;;;1.70;;
19026;SDS011;9646;52.034;5.554;2023-05-19T09:45:04;5.03;;;1.30;;
19026;SDS011;9646;52.034;5.554;2023-05-19T09:47:32;3.38;;;1.60;;
19026;SDS011;9646;52.034;5.554;2023-05-19T09:50:00;3.33;;;1.17;;
19026;SDS011;9646;52.034;5.554;2023-05-19T09:52:27;4.38;;;1.58;;
19026;SDS011;9646;52.034;5.554;2023-05-19T09:54:55;5.22;;;1.13;;
19026;SDS011;9646;52.034;5.554;2023-05-19T09:57:24;5.10;;;1.42;;
19026;SDS011;9646;52.034;5.554;2023-05-19T09:59:52;4.30;;;1.27;;
19026;SDS011;9646;52.034;5.554;2023-05-19T10:02:22;1.70;;;0.93;;
19026;SDS011;9646;52.034;5.554;2023-05-19T10:04:51;4.22;;;1.50;;
19026;SDS011;9646;52.034;5.554;2023-05-19T10:07:18;4.32;;;1.48;;
19026;SDS011;9646;52.034;5.554;2023-05-19T10:09:48;5.50;;;1.40;;
19026;SDS011;9646;52.034;5.554;2023-05-19T10:12:15;6.28;;;1.70;;
19026;SDS011;9646;52.034;5.554;2023-05-19T10:14:43;3.92;;;1.48;;
19026;SDS011;9646;52.034;5.554;2023-05-19T10:17:11;2.40;;;1.30;;
19026;SDS011;9646;52.034;5.554;2023-05-19T10:19:40;2.83;;;1.30;;
19026;SDS011;9646;52.034;5.554;2023-05-19T10:22:10;3.35;;;1.55;;
19026;SDS011;9646;52.034;5.554;2023-05-19T10:24:37;1.98;;;1.20;;
19026;SDS011;9646;52.034;5.554;2023-05-19T10:27:04;3.25;;;1.52;;
19026;SDS011;9646;52.034;5.554;2023-05-19T10:29:33;1.83;;;1.13;;
19026;SDS011;9646;52.034;5.554;2023-05-19T10:32:03;3.25;;;1.35;;
19026;SDS011;9646;52.034;5.554;2023-05-19T10:34:35;3.50;;;1.25;;
19026;SDS011;9646;52.034;5.554;2023-05-19T10:37:15;3.90;;;1.40;;
19026;SDS011;9646;52.034;5.554;2023-05-19T10:39:46;11.90;;;1.88;;
19026;SDS011;9646;52.034;5.554;2023-05-19T10:42:14;3.67;;;1.50;;
19026;SDS011;9646;52.034;5.554;2023-05-19T10:44:45;4.03;;;1.60;;
19026;SDS011;9646;52.034;5.554;2023-05-19T10:47:21;3.92;;;1.40;;
19026;SDS011;9646;52.034;5.554;2023-05-19T10:49:49;4.82;;;1.30;;
19026;SDS011;9646;52.034;5.554;2023-05-19T10:52:19;4.07;;;1.80;;
19026;SDS011;9646;52.034;5.554;2023-05-19T10:54:46;3.38;;;1.20;;
19026;SDS011;9646;52.034;5.554;2023-05-19T10:57:14;2.58;;;1.05;;
19026;SDS011;9646;52.034;5.554;2023-05-19T10:59:41;2.47;;;0.95;;
19026;SDS011;9646;52.034;5.554;2023-05-19T11:02:09;3.47;;;1.30;;
19026;SDS011;9646;52.034;5.554;2023-05-19T11:04:46;3.40;;;1.70;;
19026;SDS011;9646;52.034;5.554;2023-05-19T11:07:18;3.75;;;1.20;;
19026;SDS011;9646;52.034;5.554;2023-05-19T11:09:48;3.35;;;1.35;;
19026;SDS011;9646;52.034;5.554;2023-05-19T11:12:18;3.67;;;1.52;;
19026;SDS011;9646;52.034;5.554;2023-05-19T11:14:46;4.10;;;1.38;;
19026;SDS011;9646;52.034;5.554;2023-05-19T11:17:14;4.05;;;1.65;;
19026;SDS011;9646;52.034;5.554;2023-05-19T11:19:50;2.63;;;1.40;;
19026;SDS011;9646;52.034;5.554;2023-05-19T11:22:21;2.35;;;1.30;;
19026;SDS011;9646;52.034;5.554;2023-05-19T11:24:49;5.57;;;1.67;;
19026;SDS011;9646;52.034;5.554;2023-05-19T11:27:18;3.25;;;1.30;;
19026;SDS011;9646;52.034;5.554;2023-05-19T11:29:45;3.67;;;1.60;;
19026;SDS011;9646;52.034;5.554;2023-05-19T11:32:13;2.90;;;1.48;;
19026;SDS011;9646;52.034;5.554;2023-05-19T11:34:40;2.40;;;1.50;;
19026;SDS011;9646;52.034;5.554;2023-05-19T11:37:07;4.05;;;1.60;;
19026;SDS011;9646;52.034;5.554;2023-05-19T11:39:36;3.40;;;1.40;;
19026;SDS011;9646;52.034;5.554;2023-05-19T11:42:03;2.30;;;1.30;;
19026;SDS011;9646;52.034;5.554;2023-05-19T11:44:30;2.50;;;1.27;;
19026;SDS011;9646;52.034;5.554;2023-05-19T11:46:57;3.05;;;1.48;;
19026;SDS011;9646;52.034;5.554;2023-05-19T11:49:26;5.75;;;1.83;;
19026;SDS011;9646;52.034;5.554;2023-05-19T11:51:53;3.40;;;1.38;;
19026;SDS011;9646;52.034;5.554;2023-05-19T11:54:20;2.85;;;1.30;;
19026;SDS011;9646;52.034;5.554;2023-05-19T11:56:49;3.45;;;1.33;;
19026;SDS011;9646;52.034;5.554;2023-05-19T11:59:16;2.90;;;1.50;;
19026;SDS011;9646;52.034;5.554;2023-05-19T12:01:43;4.15;;;1.42;;
19026;SDS011;9646;52.034;5.554;2023-05-19T12:04:10;2.67;;;1.30;;
19026;SDS011;9646;52.034;5.554;2023-05-19T12:06:37;2.45;;;1.05;;
19026;SDS011;9646;52.034;5.554;2023-05-19T12:09:04;4.22;;;1.55;;
19026;SDS011;9646;52.034;5.554;2023-05-19T12:11:33;3.47;;;1.83;;
19026;SDS011;9646;52.034;5.554;2023-05-19T12:14:01;5.72;;;2.20;;
19026;SDS011;9646;52.034;5.554;2023-05-19T12:16:32;4.57;;;1.35;;
19026;SDS011;9646;52.034;5.554;2023-05-19T12:18:59;5.40;;;1.38;;
19026;SDS011;9646;52.034;5.554;2023-05-19T12:21:26;5.20;;;1.90;;
19026;SDS011;9646;52.034;5.554;2023-05-19T12:23:53;6.32;;;1.98;;
19026;SDS011;9646;52.034;5.554;2023-05-19T12:26:20;4.45;;;1.58;;
19026;SDS011;9646;52.034;5.554;2023-05-19T12:28:48;6.78;;;1.95;;
19026;SDS011;9646;52.034;5.554;2023-05-19T12:31:18;6.03;;;2.00;;
19026;SDS011;9646;52.034;5.554;2023-05-19T12:33:47;5.07;;;1.95;;
19026;SDS011;9646;52.034;5.554;2023-05-19T12:36:15;7.25;;;2.60;;
19026;SDS011;9646;52.034;5.554;2023-05-19T12:38:42;2.90;;;1.55;;
19026;SDS011;9646;52.034;5.554;2023-05-19T12:41:11;6.78;;;2.15;;
19026;SDS011;9646;52.034;5.554;2023-05-19T12:43:39;5.07;;;2.22;;
19026;SDS011;9646;52.034;5.554;2023-05-19T12:46:09;4.75;;;1.50;;
19026;SDS011;9646;52.034;5.554;2023-05-19T12:48:40;6.05;;;1.77;;
19026;SDS011;9646;52.034;5.554;2023-05-19T12:51:07;4.25;;;2.08;;
19026;SDS011;9646;52.034;5.554;2023-05-19T12:53:35;4.55;;;1.98;;
19026;SDS011;9646;52.034;5.554;2023-05-19T12:56:08;3.75;;;1.65;;
19026;SDS011;9646;52.034;5.554;2023-05-19T12:58:35;5.38;;;1.55;;
19026;SDS011;9646;52.034;5.554;2023-05-19T13:01:03;6.15;;;1.77;;
19026;SDS011;9646;52.034;5.554;2023-05-19T13:03:30;3.28;;;1.50;;
19026;SDS011;9646;52.034;5.554;2023-05-19T13:05:59;5.38;;;1.60;;
19026;SDS011;9646;52.034;5.554;2023-05-19T13:08:26;6.97;;;1.40;;
19026;SDS011;9646;52.034;5.554;2023-05-19T13:10:53;5.80;;;1.85;;
19026;SDS011;9646;52.034;5.554;2023-05-19T13:13:21;5.93;;;1.95;;
19026;SDS011;9646;52.034;5.554;2023-05-19T13:15:48;5.72;;;1.90;;
19026;SDS011;9646;52.034;5.554;2023-05-19T13:18:15;9.07;;;2.25;;
19026;SDS011;9646;52.034;5.554;2023-05-19T13:20:43;5.32;;;1.75;;
19026;SDS011;9646;52.034;5.554;2023-05-19T13:23:12;5.55;;;1.92;;
19026;SDS011;9646;52.034;5.554;2023-05-19T13:25:39;5.82;;;1.85;;
19026;SDS011;9646;52.034;5.554;2023-05-19T13:28:07;4.65;;;1.80;;
19026;SDS011;9646;52.034;5.554;2023-05-19T13:30:34;3.65;;;1.60;;
19026;SDS011;9646;52.034;5.554;2023-05-19T13:33:02;5.45;;;1.90;;
19026;SDS011;9646;52.034;5.554;2023-05-19T13:35:29;4.10;;;1.92;;
19026;SDS011;9646;52.034;5.554;2023-05-19T13:38:00;9.52;;;2.50;;
19026;SDS011;9646;52.034;5.554;2023-05-19T13:40:29;7.15;;;2.95;;
19026;SDS011;9646;52.034;5.554;2023-05-19T13:42:58;13.32;;;4.43;;
19026;SDS011;9646;52.034;5.554;2023-05-19T13:45:25;18.90;;;5.13;;
19026;SDS011;9646;52.034;5.554;2023-05-19T13:47:53;14.65;;;4.47;;
19026;SDS011;9646;52.034;5.554;2023-05-19T13:50:20;13.70;;;4.05;;
19026;SDS011;9646;52.034;5.554;2023-05-19T13:52:47;8.52;;;3.03;;
19026;SDS011;9646;52.034;5.554;2023-05-19T13:55:14;12.10;;;3.25;;
19026;SDS011;9646;52.034;5.554;2023-05-19T13:57:43;9.35;;;3.28;;
19026;SDS011;9646;52.034;5.554;2023-05-19T14:00:10;18.00;;;5.47;;
19026;SDS011;9646;52.034;5.554;2023-05-19T14:02:37;20.35;;;5.47;;
19026;SDS011;9646;52.034;5.554;2023-05-19T14:05:05;12.05;;;4.50;;
19026;SDS011;9646;52.034;5.554;2023-05-19T14:07:32;20.73;;;5.80;;
19026;SDS011;9646;52.034;5.554;2023-05-19T14:09:59;13.73;;;4.97;;
19026;SDS011;9646;52.034;5.554;2023-05-19T14:12:27;16.50;;;4.95;;
19026;SDS011;9646;52.034;5.554;2023-05-19T14:14:56;12.45;;;4.00;;
19026;SDS011;9646;52.034;5.554;2023-05-19T14:17:25;9.48;;;2.85;;
19026;SDS011;9646;52.034;5.554;2023-05-19T14:19:52;15.40;;;4.57;;
19026;SDS011;9646;52.034;5.554;2023-05-19T14:22:19;13.30;;;4.28;;
19026;SDS011;9646;52.034;5.554;2023-05-19T14:24:46;12.85;;;4.38;;
19026;SDS011;9646;52.034;5.554;2023-05-19T14:27:13;11.05;;;3.50;;
19026;SDS011;9646;52.034;5.554;2023-05-19T14:29:41;8.77;;;3.05;;
19026;SDS011;9646;52.034;5.554;2023-05-19T14:32:09;7.82;;;2.90;;
19026;SDS011;9646;52.034;5.554;2023-05-19T14:34:36;9.18;;;3.55;;
19026;SDS011;9646;52.034;5.554;2023-05-19T14:37:03;9.98;;;3.45;;
19026;SDS011;9646;52.034;5.554;2023-05-19T14:39:31;10.95;;;3.75;;
19026;SDS011;9646;52.034;5.554;2023-05-19T14:41:58;12.20;;;3.60;;
19026;SDS011;9646;52.034;5.554;2023-05-19T14:44:28;8.57;;;3.13;;
19026;SDS011;9646;52.034;5.554;2023-05-19T14:46:56;9.52;;;3.70;;
19026;SDS011;9646;52.034;5.554;2023-05-19T14:49:25;10.30;;;2.63;;
19026;SDS011;9646;52.034;5.554;2023-05-19T14:51:52;7.10;;;2.40;;
19026;SDS011;9646;52.034;5.554;2023-05-19T14:54:19;8.25;;;2.60;;
19026;SDS011;9646;52.034;5.554;2023-05-19T14:56:46;4.88;;;2.20;;
19026;SDS011;9646;52.034;5.554;2023-05-19T14:59:14;7.95;;;2.28;;
19026;SDS011;9646;52.034;5.554;2023-05-19T15:01:41;6.30;;;2.53;;
19026;SDS011;9646;52.034;5.554;2023-05-19T15:04:08;8.88;;;3.15;;
19026;SDS011;9646;52.034;5.554;2023-05-19T15:06:36;6.55;;;2.20;;
19026;SDS011;9646;52.034;5.554;2023-05-19T15:09:04;6.38;;;2.53;;